sensor_id;sensor_type;location;lat;lon;timestamp;pressure;altitude;pressure_sealevel;temperature;humidity
24280;BME280;12395;42.808;23.408;2023-03-01T00:01:54;95398.97;;;5.61;100.00
24280;BME280;12395;42.808;23.408;2023-03-01T00:04:19;95406.72;;;5.62;100.00
24280;BME280;12395;42.808;23.408;2023-03-01T00:06:45;95402.44;;;5.61;100.00
24280;BME280;12395;42.808;23.408;2023-03-01T00:09:12;95392.41;;;5.57;100.00
24280;BME280;12395;42.808;23.408;2023-03-01T00:11:38;95394.22;;;5.64;100.00
24280;BME280;12395;42.808;23.408;2023-03-01T00:14:04;95370.38;;;5.49;100.00
24280;BME280;12395;42.808;23.408;2023-03-01T00:16:35;95396.19;;;5.62;100.00
24280;BME280;12395;42.808;23.408;2023-03-01T00:19:01;95395.19;;;5.63;100.00
24280;BME280;12395;42.808;23.408;2023-03-01T00:21:27;95381.72;;;5.58;100.00
24280;BME280;12395;42.808;23.408;2023-03-01T00:23:53;95391.25;;;5.67;100.00
24280;BME280;12395;42.808;23.408;2023-03-01T00:26:21;95377.28;;;5.67;100.00
24280;BME280;12395;42.808;23.408;2023-03-01T00:28:46;95390.59;;;5.81;100.00
24280;BME280;12395;42.808;23.408;2023-03-01T00:31:20;95382.25;;;5.86;100.00
24280;BME280;12395;42.808;23.408;2023-03-01T00:33:45;95377.97;;;5.85;100.00
24280;BME280;12395;42.808;23.408;2023-03-01T00:36:12;95384.84;;;5.94;100.00
24280;BME280;12395;42.808;23.408;2023-03-01T00:38:41;95379.88;;;5.99;99.65
24280;BME280;12395;42.808;23.408;2023-03-01T00:41:08;95372.84;;;5.99;99.24
24280;BME280;12395;42.808;23.408;2023-03-01T00:43:34;95381.88;;;6.05;98.27
24280;BME280;12395;42.808;23.408;2023-03-01T00:46:09;95361.66;;;5.97;97.56
24280;BME280;12395;42.808;23.408;2023-03-01T00:48:35;95374.47;;;6.08;97.24
24280;BME280;12395;42.808;23.408;2023-03-01T00:51:10;95357.38;;;6.04;97.17
24280;BME280;12395;42.808;23.408;2023-03-01T00:53:35;95371.50;;;6.11;97.09
24280;BME280;12395;42.808;23.408;2023-03-01T00:56:02;95358.84;;;6.07;97.01
24280;BME280;12395;42.808;23.408;2023-03-01T00:58:28;95378.72;;;6.17;96.11
24280;BME280;12395;42.808;23.408;2023-03-01T01:00:54;95372.81;;;6.15;96.30
24280;BME280;12395;42.808;23.408;2023-03-01T01:03:19;95360.34;;;6.01;94.93
24280;BME280;12395;42.808;23.408;2023-03-01T01:05:45;95359.22;;;5.96;95.99
24280;BME280;12395;42.808;23.408;2023-03-01T01:08:10;95369.38;;;5.99;94.80
24280;BME280;12395;42.808;23.408;2023-03-01T01:10:36;95354.09;;;5.78;95.82
24280;BME280;12395;42.808;23.408;2023-03-01T01:13:01;95364.63;;;5.86;96.14
24280;BME280;12395;42.808;23.408;2023-03-01T01:15:27;95344.44;;;5.71;95.93
24280;BME280;12395;42.808;23.408;2023-03-01T01:17:52;95353.94;;;5.80;96.16
24280;BME280;12395;42.808;23.408;2023-03-01T01:20:18;95370.91;;;5.85;96.53
24280;BME280;12395;42.808;23.408;2023-03-01T01:22:43;95376.97;;;5.86;95.97
24280;BME280;12395;42.808;23.408;2023-03-01T01:25:08;95374.66;;;5.83;96.17
24280;BME280;12395;42.808;23.408;2023-03-01T01:27:34;95377.44;;;5.81;95.93
24280;BME280;12395;42.808;23.408;2023-03-01T01:29:59;95379.75;;;5.76;96.30
24280;BME280;12395;42.808;23.408;2023-03-01T01:32:25;95378.59;;;5.79;95.94
24280;BME280;12395;42.808;23.408;2023-03-01T01:34:50;95364.00;;;5.60;96.63
24280;BME280;12395;42.808;23.408;2023-03-01T01:37:16;95366.13;;;5.48;96.71
24280;BME280;12395;42.808;23.408;2023-03-01T01:39:41;95380.75;;;5.51;97.31
24280;BME280;12395;42.808;23.408;2023-03-01T01:42:16;95379.28;;;5.40;97.28
24280;BME280;12395;42.808;23.408;2023-03-01T01:44:44;95382.22;;;5.37;98.20
24280;BME280;12395;42.808;23.408;2023-03-01T01:47:19;95380.59;;;5.36;98.43
24280;BME280;12395;42.808;23.408;2023-03-01T01:49:55;95386.00;;;5.35;99.16
24280;BME280;12395;42.808;23.408;2023-03-01T01:52:41;95387.66;;;5.36;98.35
24280;BME280;12395;42.808;23.408;2023-03-01T01:55:14;95381.56;;;5.35;98.49
24280;BME280;12395;42.808;23.408;2023-03-01T01:57:51;95381.06;;;5.24;98.69
24280;BME280;12395;42.808;23.408;2023-03-01T02:00:21;95368.94;;;5.15;99.21
24280;BME280;12395;42.808;23.408;2023-03-01T02:02:48;95374.00;;;5.16;99.44
24280;BME280;12395;42.808;23.408;2023-03-01T02:05:34;95380.75;;;5.27;99.46
24280;BME280;12395;42.808;23.408;2023-03-01T02:08:02;95386.81;;;5.27;99.59
24280;BME280;12395;42.808;23.408;2023-03-01T02:10:29;95370.72;;;5.22;99.47
24280;BME280;12395;42.808;23.408;2023-03-01T02:12:58;95375.19;;;5.30;99.13
24280;BME280;12395;42.808;23.408;2023-03-01T02:15:25;95370.72;;;5.22;99.04
24280;BME280;12395;42.808;23.408;2023-03-01T02:17:52;95374.66;;;5.18;98.83
24280;BME280;12395;42.808;23.408;2023-03-01T02:23:02;95356.44;;;5.09;99.52
24280;BME280;12395;42.808;23.408;2023-03-01T02:25:53;95360.53;;;5.11;99.55
24280;BME280;12395;42.808;23.408;2023-03-01T02:28:26;95354.44;;;5.03;99.68
24280;BME280;12395;42.808;23.408;2023-03-01T02:30:53;95343.28;;;4.93;99.72
24280;BME280;12395;42.808;23.408;2023-03-01T02:33:37;95342.47;;;4.92;99.85
24280;BME280;12395;42.808;23.408;2023-03-01T02:36:08;95355.09;;;4.97;100.00
24280;BME280;12395;42.808;23.408;2023-03-01T02:38:35;95347.88;;;4.91;99.89
24280;BME280;12395;42.808;23.408;2023-03-01T02:41:02;95351.16;;;4.85;99.58
24280;BME280;12395;42.808;23.408;2023-03-01T02:43:30;95353.44;;;4.88;99.58
24280;BME280;12395;42.808;23.408;2023-03-01T02:46:24;95353.78;;;4.93;99.53
24280;BME280;12395;42.808;23.408;2023-03-01T02:48:53;95361.00;;;4.91;99.16
24280;BME280;12395;42.808;23.408;2023-03-01T02:56:37;95340.97;;;4.82;99.19
24280;BME280;12395;42.808;23.408;2023-03-01T02:59:02;95338.69;;;4.87;99.30
24280;BME280;12395;42.808;23.408;2023-03-01T03:01:29;95352.34;;;4.98;99.22
24280;BME280;12395;42.808;23.408;2023-03-01T03:04:10;95340.66;;;4.93;98.69
24280;BME280;12395;42.808;23.408;2023-03-01T03:06:36;95336.72;;;4.89;98.48
24280;BME280;12395;42.808;23.408;2023-03-01T03:09:03;95346.41;;;4.96;98.34
24280;BME280;12395;42.808;23.408;2023-03-01T03:11:29;95325.91;;;4.92;98.30
24280;BME280;12395;42.808;23.408;2023-03-01T03:13:55;95348.41;;;5.02;97.73
24280;BME280;12395;42.808;23.408;2023-03-01T03:16:21;95351.50;;;4.98;98.14
24280;BME280;12395;42.808;23.408;2023-03-01T03:18:47;95345.72;;;4.86;97.98
24280;BME280;12395;42.808;23.408;2023-03-01T03:21:14;95349.69;;;4.90;98.02
24280;BME280;12395;42.808;23.408;2023-03-01T03:23:40;95343.09;;;4.86;98.09
24280;BME280;12395;42.808;23.408;2023-03-01T03:26:06;95340.97;;;4.82;98.19
24280;BME280;12395;42.808;23.408;2023-03-01T03:28:32;95358.56;;;4.89;98.41
24280;BME280;12395;42.808;23.408;2023-03-01T03:30:58;95342.25;;;4.69;98.22
24280;BME280;12395;42.808;23.408;2023-03-01T03:33:24;95370.19;;;4.87;98.39
24280;BME280;12395;42.808;23.408;2023-03-01T03:35:49;95366.22;;;4.75;98.50
24280;BME280;12395;42.808;23.408;2023-03-01T03:38:17;95360.16;;;4.74;98.91
24280;BME280;12395;42.808;23.408;2023-03-01T03:40:46;95384.44;;;4.76;98.81
24280;BME280;12395;42.808;23.408;2023-03-01T03:43:18;95358.13;;;4.60;99.51
24280;BME280;12395;42.808;23.408;2023-03-01T03:45:45;95379.00;;;4.69;99.55
24280;BME280;12395;42.808;23.408;2023-03-01T03:48:10;95374.72;;;4.60;99.87
24280;BME280;12395;42.808;23.408;2023-03-01T03:50:37;95379.78;;;4.62;100.00
24280;BME280;12395;42.808;23.408;2023-03-01T03:53:11;95371.44;;;4.58;100.00
24280;BME280;12395;42.808;23.408;2023-03-01T03:55:37;95381.91;;;4.58;99.95
24280;BME280;12395;42.808;23.408;2023-03-01T03:58:05;95387.16;;;4.58;99.77
24280;BME280;12395;42.808;23.408;2023-03-01T04:00:36;95365.81;;;4.45;100.00
24280;BME280;12395;42.808;23.408;2023-03-01T04:03:02;95373.19;;;4.50;100.00
24280;BME280;12395;42.808;23.408;2023-03-01T04:05:28;95390.78;;;4.57;100.00
24280;BME280;12395;42.808;23.408;2023-03-01T04:07:53;95379.91;;;4.44;100.00
24280;BME280;12395;42.808;23.408;2023-03-01T04:10:30;95374.97;;;4.41;100.00
24280;BME280;12395;42.808;23.408;2023-03-01T04:12:56;95376.56;;;4.34;100.00
24280;BME280;12395;42.808;23.408;2023-03-01T04:15:22;95384.25;;;4.28;100.00
24280;BME280;12395;42.808;23.408;2023-03-01T04:17:49;95388.63;;;4.19;100.00
24280;BME280;12395;42.808;23.408;2023-03-01T04:20:22;95374.81;;;4.09;100.00
24280;BME280;12395;42.808;23.408;2023-03-01T04:22:56;95379.09;;;4.10;100.00
24280;BME280;12395;42.808;23.408;2023-03-01T04:25:23;95385.50;;;4.16;100.00
24280;BME280;12395;42.808;23.408;2023-03-01T04:27:48;95380.28;;;4.16;100.00
24280;BME280;12395;42.808;23.408;2023-03-01T04:30:14;95363.50;;;4.09;100.00
24280;BME280;12395;42.808;23.408;2023-03-01T04:32:39;95356.38;;;4.19;100.00
24280;BME280;12395;42.808;23.408;2023-03-01T04:35:05;95356.50;;;4.17;100.00
24280;BME280;12395;42.808;23.408;2023-03-01T04:37:30;95360.63;;;4.20;100.00
24280;BME280;12395;42.808;23.408;2023-03-01T04:39:56;95359.94;;;4.18;100.00
24280;BME280;12395;42.808;23.408;2023-03-01T04:42:21;95359.28;;;4.16;100.00
24280;BME280;12395;42.808;23.408;2023-03-01T04:44:46;95370.97;;;4.21;100.00
24280;BME280;12395;42.808;23.408;2023-03-01T04:47:12;95365.41;;;4.24;100.00
24280;BME280;12395;42.808;23.408;2023-03-01T04:49:38;95372.97;;;4.27;100.00
24280;BME280;12395;42.808;23.408;2023-03-01T04:52:05;95365.75;;;4.29;100.00
24280;BME280;12395;42.808;23.408;2023-03-01T04:54:31;95351.31;;;4.25;100.00
24280;BME280;12395;42.808;23.408;2023-03-01T04:57:02;95352.94;;;4.26;100.00
24280;BME280;12395;42.808;23.408;2023-03-01T04:59:28;95351.44;;;4.24;100.00
24280;BME280;12395;42.808;23.408;2023-03-01T05:01:54;95355.13;;;4.39;100.00
24280;BME280;12395;42.808;23.408;2023-03-01T05:04:23;95359.56;;;4.38;100.00
24280;BME280;12395;42.808;23.408;2023-03-01T05:06:49;95354.31;;;4.38;99.64
24280;BME280;12395;42.808;23.408;2023-03-01T05:09:15;95375.81;;;4.42;99.73
24280;BME280;12395;42.808;23.408;2023-03-01T05:11:41;95368.78;;;4.50;99.57
24280;BME280;12395;42.808;23.408;2023-03-01T05:14:08;95369.75;;;4.49;98.96
24280;BME280;12395;42.808;23.408;2023-03-01T05:16:34;95355.13;;;4.39;98.64
24280;BME280;12395;42.808;23.408;2023-03-01T05:19:01;95377.13;;;4.46;98.82
24280;BME280;12395;42.808;23.408;2023-03-01T05:21:37;95378.91;;;4.45;99.33
24280;BME280;12395;42.808;23.408;2023-03-01T05:24:23;95365.13;;;4.43;99.11
24280;BME280;12395;42.808;23.408;2023-03-01T05:26:48;95359.22;;;4.41;98.85
24280;BME280;12395;42.808;23.408;2023-03-01T05:29:14;95374.03;;;4.50;99.13
24280;BME280;12395;42.808;23.408;2023-03-01T05:31:39;95366.97;;;4.51;99.04
24280;BME280;12395;42.808;23.408;2023-03-01T05:34:04;95372.41;;;4.57;98.64
24280;BME280;12395;42.808;23.408;2023-03-01T05:36:31;95374.53;;;4.62;98.06
24280;BME280;12395;42.808;23.408;2023-03-01T05:38:56;95388.69;;;4.69;97.63
24280;BME280;12395;42.808;23.408;2023-03-01T05:41:22;95385.38;;;4.67;97.77
24280;BME280;12395;42.808;23.408;2023-03-01T05:43:47;95380.81;;;4.69;97.18
24280;BME280;12395;42.808;23.408;2023-03-01T05:46:13;95375.22;;;4.64;97.31
24280;BME280;12395;42.808;23.408;2023-03-01T05:48:40;95378.81;;;4.63;97.83
24280;BME280;12395;42.808;23.408;2023-03-01T05:51:05;95385.88;;;4.62;97.94
24280;BME280;12395;42.808;23.408;2023-03-01T05:53:31;95378.66;;;4.64;97.54
24280;BME280;12395;42.808;23.408;2023-03-01T05:55:56;95390.81;;;4.74;97.11
24280;BME280;12395;42.808;23.408;2023-03-01T05:58:23;95392.97;;;4.78;97.26
24280;BME280;12395;42.808;23.408;2023-03-01T06:00:49;95397.59;;;4.92;96.65
24280;BME280;12395;42.808;23.408;2023-03-01T06:03:16;95394.00;;;4.93;96.20
24280;BME280;12395;42.808;23.408;2023-03-01T06:05:42;95394.00;;;4.93;96.09
24280;BME280;12395;42.808;23.408;2023-03-01T06:08:09;95406.16;;;5.02;95.54
24280;BME280;12395;42.808;23.408;2023-03-01T06:10:35;95409.78;;;5.09;95.02
24280;BME280;12395;42.808;23.408;2023-03-01T06:13:00;95413.22;;;5.10;95.14
24280;BME280;12395;42.808;23.408;2023-03-01T06:15:26;95412.56;;;5.24;95.36
24280;BME280;12395;42.808;23.408;2023-03-01T06:17:54;95421.16;;;5.34;94.45
24280;BME280;12395;42.808;23.408;2023-03-01T06:20:23;95422.47;;;5.38;93.66
24280;BME280;12395;42.808;23.408;2023-03-01T06:22:49;95423.13;;;5.48;93.47
24280;BME280;12395;42.808;23.408;2023-03-01T06:25:17;95410.94;;;5.39;92.74
24280;BME280;12395;42.808;23.408;2023-03-01T06:27:43;95424.13;;;5.47;93.02
24280;BME280;12395;42.808;23.408;2023-03-01T06:30:11;95416.88;;;5.41;93.24
24280;BME280;12395;42.808;23.408;2023-03-01T06:32:37;95434.28;;;5.58;92.37
24280;BME280;12395;42.808;23.408;2023-03-01T06:35:07;95418.84;;;5.55;91.91
24280;BME280;12395;42.808;23.408;2023-03-01T06:37:32;95418.53;;;5.66;92.34
24280;BME280;12395;42.808;23.408;2023-03-01T06:39:58;95408.84;;;5.59;91.64
24280;BME280;12395;42.808;23.408;2023-03-01T06:42:24;95423.78;;;5.74;91.16
24280;BME280;12395;42.808;23.408;2023-03-01T06:44:49;95432.00;;;5.79;91.41
24280;BME280;12395;42.808;23.408;2023-03-01T06:47:15;95420.31;;;5.82;91.02
24280;BME280;12395;42.808;23.408;2023-03-01T06:49:41;95429.56;;;5.94;90.74
24280;BME280;12395;42.808;23.408;2023-03-01T06:52:06;95422.81;;;5.83;89.98
24280;BME280;12395;42.808;23.408;2023-03-01T06:54:31;95423.47;;;5.85;89.72
24280;BME280;12395;42.808;23.408;2023-03-01T06:56:57;95413.94;;;5.84;89.76
24280;BME280;12395;42.808;23.408;2023-03-01T06:59:22;95427.75;;;5.94;90.02
24280;BME280;12395;42.808;23.408;2023-03-01T07:01:47;95402.94;;;5.89;90.12
24280;BME280;12395;42.808;23.408;2023-03-01T07:04:13;95419.19;;;6.00;89.77
24280;BME280;12395;42.808;23.408;2023-03-01T07:06:38;95415.91;;;6.06;89.49
24280;BME280;12395;42.808;23.408;2023-03-01T07:09:04;95418.31;;;6.16;89.10
24280;BME280;12395;42.808;23.408;2023-03-01T07:11:29;95406.50;;;6.20;89.63
24280;BME280;12395;42.808;23.408;2023-03-01T07:13:55;95418.13;;;6.34;88.86
24280;BME280;12395;42.808;23.408;2023-03-01T07:16:21;95428.28;;;6.45;87.97
24280;BME280;12395;42.808;23.408;2023-03-01T07:18:46;95423.03;;;6.45;87.80
24280;BME280;12395;42.808;23.408;2023-03-01T07:21:13;95428.25;;;6.53;87.57
24280;BME280;12395;42.808;23.408;2023-03-01T07:23:39;95423.00;;;6.53;87.80
24280;BME280;12395;42.808;23.408;2023-03-01T07:26:05;95428.91;;;6.55;87.14
24280;BME280;12395;42.808;23.408;2023-03-01T07:28:30;95411.13;;;6.57;87.67
24280;BME280;12395;42.808;23.408;2023-03-01T07:31:01;95428.19;;;6.77;87.49
24280;BME280;12395;42.808;23.408;2023-03-01T07:33:26;95413.34;;;6.84;86.54
24280;BME280;12395;42.808;23.408;2023-03-01T07:36:00;95416.75;;;6.92;86.14
24280;BME280;12395;42.808;23.408;2023-03-01T07:38:27;95409.00;;;6.99;85.35
24280;BME280;12395;42.808;23.408;2023-03-01T07:40:52;95401.38;;;7.04;86.13
24280;BME280;12395;42.808;23.408;2023-03-01T07:43:18;95411.31;;;7.25;84.98
24280;BME280;12395;42.808;23.408;2023-03-01T07:45:44;95398.94;;;7.25;86.50
24280;BME280;12395;42.808;23.408;2023-03-01T07:48:09;95419.84;;;7.49;85.94
24280;BME280;12395;42.808;23.408;2023-03-01T07:50:35;95413.41;;;7.52;84.81
24280;BME280;12395;42.808;23.408;2023-03-01T07:53:00;95418.44;;;7.61;83.37
24280;BME280;12395;42.808;23.408;2023-03-01T07:55:26;95418.75;;;7.66;84.62
24280;BME280;12395;42.808;23.408;2023-03-01T07:57:51;95399.34;;;7.59;83.04
24280;BME280;12395;42.808;23.408;2023-03-01T08:00:17;95409.66;;;7.46;83.28
24280;BME280;12395;42.808;23.408;2023-03-01T08:02:42;95396.53;;;7.38;83.62
24280;BME280;12395;42.808;23.408;2023-03-01T08:05:09;95420.81;;;7.56;85.14
24280;BME280;12395;42.808;23.408;2023-03-01T08:07:35;95389.16;;;7.56;85.01
24280;BME280;12395;42.808;23.408;2023-03-01T08:10:00;95406.72;;;7.64;83.16
24280;BME280;12395;42.808;23.408;2023-03-01T08:12:26;95402.81;;;7.60;83.79
24280;BME280;12395;42.808;23.408;2023-03-01T08:14:53;95394.38;;;7.64;84.27
24280;BME280;12395;42.808;23.408;2023-03-01T08:17:18;95396.28;;;7.70;82.89
24280;BME280;12395;42.808;23.408;2023-03-01T08:19:44;95393.09;;;7.60;83.64
24280;BME280;12395;42.808;23.408;2023-03-01T08:22:10;95393.78;;;7.54;84.44
24280;BME280;12395;42.808;23.408;2023-03-01T08:24:35;95382.94;;;7.49;83.62
24280;BME280;12395;42.808;23.408;2023-03-01T08:27:00;95397.41;;;7.53;83.78
24280;BME280;12395;42.808;23.408;2023-03-01T08:29:30;95390.97;;;7.56;85.29
24280;BME280;12395;42.808;23.408;2023-03-01T08:31:56;95397.00;;;7.64;84.40
24280;BME280;12395;42.808;23.408;2023-03-01T08:34:22;95386.25;;;7.66;85.66
24280;BME280;12395;42.808;23.408;2023-03-01T08:36:48;95369.56;;;7.73;87.98
24280;BME280;12395;42.808;23.408;2023-03-01T08:39:16;95385.63;;;8.01;89.01
24280;BME280;12395;42.808;23.408;2023-03-01T08:41:42;95393.38;;;8.17;89.33
24280;BME280;12395;42.808;23.408;2023-03-01T08:44:08;95395.25;;;8.31;89.37
24280;BME280;12395;42.808;23.408;2023-03-01T08:46:39;95397.34;;;8.36;89.08
24280;BME280;12395;42.808;23.408;2023-03-01T08:49:11;95397.81;;;8.39;88.58
24280;BME280;12395;42.808;23.408;2023-03-01T08:51:37;95396.78;;;8.40;88.30
24280;BME280;12395;42.808;23.408;2023-03-01T08:54:05;95401.81;;;8.50;88.34
24280;BME280;12395;42.808;23.408;2023-03-01T08:56:31;95400.81;;;8.51;88.05
24280;BME280;12395;42.808;23.408;2023-03-01T08:58:56;95395.16;;;8.54;87.85
24280;BME280;12395;42.808;23.408;2023-03-01T09:01:22;95396.97;;;8.53;87.56
24280;BME280;12395;42.808;23.408;2023-03-01T09:03:47;95383.59;;;8.55;87.94
24280;BME280;12395;42.808;23.408;2023-03-01T09:06:13;95391.97;;;8.59;87.68
24280;BME280;12395;42.808;23.408;2023-03-01T09:08:42;95394.06;;;8.63;88.44
24280;BME280;12395;42.808;23.408;2023-03-01T09:11:10;95403.53;;;8.72;87.97
24280;BME280;12395;42.808;23.408;2023-03-01T09:13:36;95405.44;;;8.78;88.48
24280;BME280;12395;42.808;23.408;2023-03-01T09:16:03;95393.84;;;8.79;88.95
24280;BME280;12395;42.808;23.408;2023-03-01T09:18:29;95393.78;;;8.73;88.12
24280;BME280;12395;42.808;23.408;2023-03-01T09:21:07;95386.94;;;8.78;88.13
24280;BME280;12395;42.808;23.408;2023-03-01T09:23:37;95379.72;;;8.87;87.64
24280;BME280;12395;42.808;23.408;2023-03-01T09:26:08;95395.75;;;9.00;86.65
24280;BME280;12395;42.808;23.408;2023-03-01T09:28:35;95392.56;;;9.04;84.74
24280;BME280;12395;42.808;23.408;2023-03-01T09:31:01;95392.03;;;9.15;85.21
24280;BME280;12395;42.808;23.408;2023-03-01T09:33:28;95383.75;;;9.18;85.09
24280;BME280;12395;42.808;23.408;2023-03-01T09:36:05;95379.47;;;9.17;86.40
24280;BME280;12395;42.808;23.408;2023-03-01T09:38:32;95382.19;;;9.24;85.75
24280;BME280;12395;42.808;23.408;2023-03-01T09:40:59;95382.50;;;9.36;85.64
24280;BME280;12395;42.808;23.408;2023-03-01T09:43:40;95388.19;;;9.54;84.27
24280;BME280;12395;42.808;23.408;2023-03-01T09:46:12;95387.81;;;9.57;83.73
24280;BME280;12395;42.808;23.408;2023-03-01T09:48:46;95386.56;;;9.53;83.60
24280;BME280;12395;42.808;23.408;2023-03-01T09:51:18;95381.47;;;9.51;83.44
24280;BME280;12395;42.808;23.408;2023-03-01T09:53:44;95370.81;;;9.45;83.53
24280;BME280;12395;42.808;23.408;2023-03-01T09:58:53;95386.94;;;9.71;82.60
24280;BME280;12395;42.808;23.408;2023-03-01T10:01:40;95377.53;;;9.68;83.33
24280;BME280;12395;42.808;23.408;2023-03-01T10:07:21;95363.06;;;9.64;82.84
24280;BME280;12395;42.808;23.408;2023-03-01T10:09:49;95358.41;;;9.66;82.63
24280;BME280;12395;42.808;23.408;2023-03-01T10:12:22;95366.78;;;9.70;82.55
24280;BME280;12395;42.808;23.408;2023-03-01T10:17:44;95358.56;;;9.65;82.45
24280;BME280;12395;42.808;23.408;2023-03-01T10:20:26;95366.56;;;9.71;82.89
24280;BME280;12395;42.808;23.408;2023-03-01T10:22:55;95351.19;;;9.60;81.91
24280;BME280;12395;42.808;23.408;2023-03-01T10:25:53;95351.59;;;9.57;82.77
24280;BME280;12395;42.808;23.408;2023-03-01T10:28:29;95352.28;;;9.66;82.89
24280;BME280;12395;42.808;23.408;2023-03-01T10:30:57;95346.28;;;9.78;82.67
24280;BME280;12395;42.808;23.408;2023-03-01T10:33:27;95347.88;;;9.73;81.89
24280;BME280;12395;42.808;23.408;2023-03-01T10:35:54;95336.91;;;9.76;82.48
24280;BME280;12395;42.808;23.408;2023-03-01T10:38:20;95324.38;;;9.91;82.40
24280;BME280;12395;42.808;23.408;2023-03-01T10:43:20;95330.94;;;9.95;80.00
24280;BME280;12395;42.808;23.408;2023-03-01T10:45:46;95342.41;;;10.02;81.25
24280;BME280;12395;42.808;23.408;2023-03-01T10:50:40;95325.09;;;10.06;79.78
24280;BME280;12395;42.808;23.408;2023-03-01T10:53:21;95319.16;;;10.25;79.09
24280;BME280;12395;42.808;23.408;2023-03-01T10:55:47;95318.53;;;10.23;78.99
24280;BME280;12395;42.808;23.408;2023-03-01T10:58:22;95314.28;;;10.29;77.44
24280;BME280;12395;42.808;23.408;2023-03-01T11:00:52;95330.88;;;10.50;76.02
24280;BME280;12395;42.808;23.408;2023-03-01T11:06:01;95331.84;;;10.36;73.03
24280;BME280;12395;42.808;23.408;2023-03-01T11:08:43;95326.84;;;10.20;74.75
24280;BME280;12395;42.808;23.408;2023-03-01T11:11:13;95326.34;;;10.10;73.31
24280;BME280;12395;42.808;23.408;2023-03-01T11:13:56;95329.00;;;10.10;74.00
24280;BME280;12395;42.808;23.408;2023-03-01T11:16:25;95310.47;;;10.10;75.19
24280;BME280;12395;42.808;23.408;2023-03-01T11:24:16;95327.91;;;9.70;73.57
24280;BME280;12395;42.808;23.408;2023-03-01T11:26:47;95316.78;;;9.54;74.75
24280;BME280;12395;42.808;23.408;2023-03-01T11:29:38;95330.25;;;9.38;75.50
24280;BME280;12395;42.808;23.408;2023-03-01T11:32:08;95322.75;;;8.99;76.20
24280;BME280;12395;42.808;23.408;2023-03-01T11:37:15;95310.72;;;8.61;77.77
24280;BME280;12395;42.808;23.408;2023-03-01T11:45:47;95298.75;;;8.29;80.50
24280;BME280;12395;42.808;23.408;2023-03-01T11:51:05;95292.72;;;8.20;81.25
24280;BME280;12395;42.808;23.408;2023-03-01T11:56:40;95289.38;;;8.12;81.94
24280;BME280;12395;42.808;23.408;2023-03-01T11:59:17;95284.09;;;8.12;82.31
24280;BME280;12395;42.808;23.408;2023-03-01T12:04:37;95283.28;;;8.26;82.66
24280;BME280;12395;42.808;23.408;2023-03-01T12:19:42;95285.56;;;7.33;86.14
24280;BME280;12395;42.808;23.408;2023-03-01T12:21:46;95280.47;;;7.46;86.42
24280;BME280;12395;42.808;23.408;2023-03-01T12:32:09;95272.94;;;7.43;86.37
24280;BME280;12395;42.808;23.408;2023-03-01T12:34:52;95262.75;;;7.40;86.47
24280;BME280;12395;42.808;23.408;2023-03-01T12:43:36;95255.84;;;7.39;87.69
24280;BME280;12395;42.808;23.408;2023-03-01T12:50:53;95256.59;;;7.62;86.81
24280;BME280;12395;42.808;23.408;2023-03-01T12:53:28;95239.50;;;7.73;86.21
24280;BME280;12395;42.808;23.408;2023-03-01T12:55:59;95246.34;;;7.82;86.14
24280;BME280;12395;42.808;23.408;2023-03-01T13:01:15;95238.03;;;8.14;86.36
24280;BME280;12395;42.808;23.408;2023-03-01T13:04:07;95248.94;;;8.40;84.53
24280;BME280;12395;42.808;23.408;2023-03-01T13:06:54;95236.34;;;8.57;83.11
24280;BME280;12395;42.808;23.408;2023-03-01T13:09:40;95256.78;;;8.70;82.42
24280;BME280;12395;42.808;23.408;2023-03-01T13:17:55;95230.44;;;9.18;80.30
24280;BME280;12395;42.808;23.408;2023-03-01T13:20:25;95245.94;;;9.21;79.69
24280;BME280;12395;42.808;23.408;2023-03-01T13:23:26;95254.88;;;8.99;79.65
24280;BME280;12395;42.808;23.408;2023-03-01T13:31:10;95244.78;;;8.67;81.70
24280;BME280;12395;42.808;23.408;2023-03-01T13:33:58;95254.34;;;8.68;82.41
24280;BME280;12395;42.808;23.408;2023-03-01T13:44:35;95253.81;;;8.58;83.26
24280;BME280;12395;42.808;23.408;2023-03-01T13:47:14;95244.81;;;8.52;83.19
24280;BME280;12395;42.808;23.408;2023-03-01T13:49:49;95258.25;;;8.72;84.88
24280;BME280;12395;42.808;23.408;2023-03-01T13:52:39;95246.28;;;8.55;83.42
24280;BME280;12395;42.808;23.408;2023-03-01T13:55:47;95242.50;;;8.28;84.69
24280;BME280;12395;42.808;23.408;2023-03-01T13:58:25;95239.50;;;8.31;85.22
24280;BME280;12395;42.808;23.408;2023-03-01T14:01:06;95247.59;;;8.44;86.32
24280;BME280;12395;42.808;23.408;2023-03-01T14:03:39;95241.25;;;8.60;87.99
24280;BME280;12395;42.808;23.408;2023-03-01T14:08:35;95227.28;;;8.66;86.39
24280;BME280;12395;42.808;23.408;2023-03-01T14:11:32;95243.53;;;8.84;87.54
24280;BME280;12395;42.808;23.408;2023-03-01T14:14:29;95236.78;;;8.82;88.70
24280;BME280;12395;42.808;23.408;2023-03-01T14:19:30;95240.75;;;8.92;90.24
24280;BME280;12395;42.808;23.408;2023-03-01T14:22:10;95237.28;;;8.92;90.63
24280;BME280;12395;42.808;23.408;2023-03-01T14:24:47;95237.56;;;8.97;90.34
24280;BME280;12395;42.808;23.408;2023-03-01T14:27:14;95225.09;;;8.91;90.49
24280;BME280;12395;42.808;23.408;2023-03-01T14:29:41;95232.19;;;8.90;90.36
24280;BME280;12395;42.808;23.408;2023-03-01T14:32:12;95235.53;;;8.99;90.45
24280;BME280;12395;42.808;23.408;2023-03-01T14:34:43;95232.28;;;8.97;90.47
24280;BME280;12395;42.808;23.408;2023-03-01T14:37:11;95217.59;;;8.94;90.65
24280;BME280;12395;42.808;23.408;2023-03-01T14:39:42;95222.13;;;9.00;90.47
24280;BME280;12395;42.808;23.408;2023-03-01T14:42:08;95231.69;;;9.01;89.98
24280;BME280;12395;42.808;23.408;2023-03-01T14:44:34;95211.00;;;8.84;89.87
24280;BME280;12395;42.808;23.408;2023-03-01T14:47:02;95224.47;;;8.89;90.35
24280;BME280;12395;42.808;23.408;2023-03-01T14:49:30;95229.56;;;8.90;90.58
24280;BME280;12395;42.808;23.408;2023-03-01T14:52:00;95231.97;;;8.85;90.77
24280;BME280;12395;42.808;23.408;2023-03-01T14:57:00;95227.69;;;8.84;91.41